sensor_id;sensor_type;location;lat;lon;timestamp;P1;durP1;ratioP1;P2;durP2;ratioP2
60416;SDS011;46263;44.726;10.396;2024-02-04T00:00:00;10.93;;;5.80;;
60416;SDS011;46263;44.726;10.396;2024-02-04T00:02:26;12.68;;;5.40;;
60416;SDS011;46263;44.726;10.396;2024-02-04T00:04:51;11.18;;;5.88;;
60416;SDS011;46263;44.726;10.396;2024-02-04T00:07:17;17.13;;;6.07;;
60416;SDS011;46263;44.726;10.396;2024-02-04T00:09:42;10.77;;;5.93;;
60416;SDS011;46263;44.726;10.396;2024-02-04T00:12:09;17.95;;;6.25;;
60416;SDS011;46263;44.726;10.396;2024-02-04T00:14:35;9.10;;;5.45;;
60416;SDS011;46263;44.726;10.396;2024-02-04T00:17:00;11.15;;;6.03;;
60416;SDS011;46263;44.726;10.396;2024-02-04T00:19:26;13.63;;;6.10;;
60416;SDS011;46263;44.726;10.396;2024-02-04T00:21:52;13.02;;;6.47;;
60416;SDS011;46263;44.726;10.396;2024-02-04T00:24:17;13.50;;;7.25;;
60416;SDS011;46263;44.726;10.396;2024-02-04T00:26:46;13.70;;;6.53;;
60416;SDS011;46263;44.726;10.396;2024-02-04T00:29:12;12.95;;;6.68;;
60416;SDS011;46263;44.726;10.396;2024-02-04T00:31:38;14.77;;;6.97;;
60416;SDS011;46263;44.726;10.396;2024-02-04T00:34:03;13.73;;;6.68;;
60416;SDS011;46263;44.726;10.396;2024-02-04T00:36:30;13.07;;;6.40;;
60416;SDS011;46263;44.726;10.396;2024-02-04T00:38:55;16.10;;;6.30;;
60416;SDS011;46263;44.726;10.396;2024-02-04T00:41:21;10.63;;;5.78;;
60416;SDS011;46263;44.726;10.396;2024-02-04T00:43:46;10.60;;;5.68;;
60416;SDS011;46263;44.726;10.396;2024-02-04T00:46:12;10.68;;;6.03;;
60416;SDS011;46263;44.726;10.396;2024-02-04T00:48:37;13.57;;;6.00;;
60416;SDS011;46263;44.726;10.396;2024-02-04T00:51:03;11.80;;;6.07;;
60416;SDS011;46263;44.726;10.396;2024-02-04T00:53:29;12.55;;;5.75;;
60416;SDS011;46263;44.726;10.396;2024-02-04T00:56:00;13.00;;;6.70;;
60416;SDS011;46263;44.726;10.396;2024-02-04T00:58:26;9.88;;;5.47;;
60416;SDS011;46263;44.726;10.396;2024-02-04T01:00:51;11.73;;;5.63;;
60416;SDS011;46263;44.726;10.396;2024-02-04T01:03:17;10.95;;;5.85;;
60416;SDS011;46263;44.726;10.396;2024-02-04T01:05:42;9.43;;;6.35;;
60416;SDS011;46263;44.726;10.396;2024-02-04T01:08:08;12.70;;;6.57;;
60416;SDS011;46263;44.726;10.396;2024-02-04T01:10:33;15.98;;;7.05;;
60416;SDS011;46263;44.726;10.396;2024-02-04T01:12:59;13.75;;;7.05;;
60416;SDS011;46263;44.726;10.396;2024-02-04T01:15:24;12.40;;;7.43;;
60416;SDS011;46263;44.726;10.396;2024-02-04T01:17:51;15.88;;;8.07;;
60416;SDS011;46263;44.726;10.396;2024-02-04T01:20:17;13.77;;;7.45;;
60416;SDS011;46263;44.726;10.396;2024-02-04T01:22:43;10.75;;;6.22;;
60416;SDS011;46263;44.726;10.396;2024-02-04T01:25:09;10.00;;;6.13;;
60416;SDS011;46263;44.726;10.396;2024-02-04T01:27:34;12.40;;;5.55;;
60416;SDS011;46263;44.726;10.396;2024-02-04T01:30:00;9.40;;;5.55;;
60416;SDS011;46263;44.726;10.396;2024-02-04T01:32:25;9.57;;;5.80;;
60416;SDS011;46263;44.726;10.396;2024-02-04T01:34:50;10.27;;;5.30;;
60416;SDS011;46263;44.726;10.396;2024-02-04T01:37:16;12.55;;;5.60;;
60416;SDS011;46263;44.726;10.396;2024-02-04T01:39:41;9.05;;;5.25;;
60416;SDS011;46263;44.726;10.396;2024-02-04T01:42:07;9.13;;;5.90;;
60416;SDS011;46263;44.726;10.396;2024-02-04T01:44:33;7.93;;;5.22;;
60416;SDS011;46263;44.726;10.396;2024-02-04T01:46:58;10.57;;;4.93;;
60416;SDS011;46263;44.726;10.396;2024-02-04T01:49:24;7.82;;;4.80;;
60416;SDS011;46263;44.726;10.396;2024-02-04T01:51:51;7.60;;;4.70;;
60416;SDS011;46263;44.726;10.396;2024-02-04T01:54:17;7.57;;;3.42;;
60416;SDS011;46263;44.726;10.396;2024-02-04T01:56:43;6.47;;;3.88;;
60416;SDS011;46263;44.726;10.396;2024-02-04T01:59:14;7.70;;;4.28;;
60416;SDS011;46263;44.726;10.396;2024-02-04T02:01:40;5.22;;;3.38;;
60416;SDS011;46263;44.726;10.396;2024-02-04T02:04:08;9.70;;;4.22;;
60416;SDS011;46263;44.726;10.396;2024-02-04T02:06:33;7.60;;;3.97;;
60416;SDS011;46263;44.726;10.396;2024-02-04T02:09:06;7.53;;;4.18;;
60416;SDS011;46263;44.726;10.396;2024-02-04T02:11:41;12.07;;;4.38;;
60416;SDS011;46263;44.726;10.396;2024-02-04T02:14:12;9.57;;;4.40;;
60416;SDS011;46263;44.726;10.396;2024-02-04T02:16:40;11.20;;;6.28;;
60416;SDS011;46263;44.726;10.396;2024-02-04T02:24:32;11.43;;;5.93;;
60416;SDS011;46263;44.726;10.396;2024-02-04T02:27:03;11.27;;;6.07;;
60416;SDS011;46263;44.726;10.396;2024-02-04T02:29:30;13.63;;;7.15;;
60416;SDS011;46263;44.726;10.396;2024-02-04T02:31:57;11.48;;;6.80;;
60416;SDS011;46263;44.726;10.396;2024-02-04T02:34:24;13.20;;;7.82;;
60416;SDS011;46263;44.726;10.396;2024-02-04T02:36:52;15.27;;;8.40;;
60416;SDS011;46263;44.726;10.396;2024-02-04T02:39:24;19.90;;;9.35;;
60416;SDS011;46263;44.726;10.396;2024-02-04T02:41:57;18.23;;;9.18;;
60416;SDS011;46263;44.726;10.396;2024-02-04T02:44:26;20.25;;;9.45;;
60416;SDS011;46263;44.726;10.396;2024-02-04T02:46:54;18.80;;;8.90;;
60416;SDS011;46263;44.726;10.396;2024-02-04T02:49:22;15.15;;;9.13;;
60416;SDS011;46263;44.726;10.396;2024-02-04T02:51:48;13.55;;;7.93;;
60416;SDS011;46263;44.726;10.396;2024-02-04T02:54:13;18.75;;;8.05;;
60416;SDS011;46263;44.726;10.396;2024-02-04T02:56:39;17.45;;;8.55;;
60416;SDS011;46263;44.726;10.396;2024-02-04T02:59:04;15.02;;;8.25;;
60416;SDS011;46263;44.726;10.396;2024-02-04T03:01:30;13.77;;;8.23;;
60416;SDS011;46263;44.726;10.396;2024-02-04T03:03:56;14.55;;;7.68;;
60416;SDS011;46263;44.726;10.396;2024-02-04T03:06:21;19.20;;;7.80;;
60416;SDS011;46263;44.726;10.396;2024-02-04T03:08:47;13.50;;;7.05;;
60416;SDS011;46263;44.726;10.396;2024-02-04T03:11:12;14.73;;;7.85;;
60416;SDS011;46263;44.726;10.396;2024-02-04T03:13:38;14.20;;;7.70;;
60416;SDS011;46263;44.726;10.396;2024-02-04T03:16:04;9.93;;;6.60;;
60416;SDS011;46263;44.726;10.396;2024-02-04T03:18:35;10.30;;;6.13;;
60416;SDS011;46263;44.726;10.396;2024-02-04T03:21:00;11.75;;;6.18;;
60416;SDS011;46263;44.726;10.396;2024-02-04T03:23:26;9.77;;;5.90;;
60416;SDS011;46263;44.726;10.396;2024-02-04T03:25:51;11.63;;;6.18;;
60416;SDS011;46263;44.726;10.396;2024-02-04T03:28:16;11.68;;;6.65;;
60416;SDS011;46263;44.726;10.396;2024-02-04T03:30:43;9.23;;;5.45;;
60416;SDS011;46263;44.726;10.396;2024-02-04T03:33:08;9.65;;;5.63;;
60416;SDS011;46263;44.726;10.396;2024-02-04T03:35:33;12.20;;;5.40;;
60416;SDS011;46263;44.726;10.396;2024-02-04T03:38:01;12.45;;;6.72;;
60416;SDS011;46263;44.726;10.396;2024-02-04T03:40:26;13.13;;;5.55;;
60416;SDS011;46263;44.726;10.396;2024-02-04T03:42:52;9.55;;;5.85;;
60416;SDS011;46263;44.726;10.396;2024-02-04T03:45:17;9.18;;;5.55;;
60416;SDS011;46263;44.726;10.396;2024-02-04T03:47:43;12.30;;;6.88;;
60416;SDS011;46263;44.726;10.396;2024-02-04T03:50:08;11.05;;;5.90;;
60416;SDS011;46263;44.726;10.396;2024-02-04T03:52:34;12.15;;;5.50;;
60416;SDS011;46263;44.726;10.396;2024-02-04T03:55:00;11.98;;;5.97;;
60416;SDS011;46263;44.726;10.396;2024-02-04T03:57:25;11.23;;;5.72;;
60416;SDS011;46263;44.726;10.396;2024-02-04T03:59:51;10.52;;;5.53;;
60416;SDS011;46263;44.726;10.396;2024-02-04T04:02:16;11.43;;;5.40;;
60416;SDS011;46263;44.726;10.396;2024-02-04T04:04:41;11.27;;;5.28;;
60416;SDS011;46263;44.726;10.396;2024-02-04T04:07:08;11.05;;;6.25;;
60416;SDS011;46263;44.726;10.396;2024-02-04T04:09:33;12.80;;;6.63;;
60416;SDS011;46263;44.726;10.396;2024-02-04T04:11:59;12.82;;;6.63;;
60416;SDS011;46263;44.726;10.396;2024-02-04T04:14:24;10.68;;;6.35;;
60416;SDS011;46263;44.726;10.396;2024-02-04T04:16:50;9.88;;;5.78;;
60416;SDS011;46263;44.726;10.396;2024-02-04T04:19:15;8.80;;;5.28;;
60416;SDS011;46263;44.726;10.396;2024-02-04T04:21:40;7.63;;;5.25;;
60416;SDS011;46263;44.726;10.396;2024-02-04T04:24:06;11.07;;;5.43;;
60416;SDS011;46263;44.726;10.396;2024-02-04T04:26:32;9.60;;;5.32;;
60416;SDS011;46263;44.726;10.396;2024-02-04T04:28:58;9.32;;;5.57;;
60416;SDS011;46263;44.726;10.396;2024-02-04T04:31:24;11.10;;;6.05;;
60416;SDS011;46263;44.726;10.396;2024-02-04T04:33:49;10.90;;;5.65;;
60416;SDS011;46263;44.726;10.396;2024-02-04T04:36:17;9.43;;;5.40;;
60416;SDS011;46263;44.726;10.396;2024-02-04T04:38:42;9.18;;;4.78;;
60416;SDS011;46263;44.726;10.396;2024-02-04T04:41:08;10.30;;;5.53;;
60416;SDS011;46263;44.726;10.396;2024-02-04T04:43:36;10.23;;;5.32;;
60416;SDS011;46263;44.726;10.396;2024-02-04T04:46:02;13.07;;;6.28;;
60416;SDS011;46263;44.726;10.396;2024-02-04T04:48:27;13.30;;;6.30;;
60416;SDS011;46263;44.726;10.396;2024-02-04T04:50:53;9.48;;;6.15;;
60416;SDS011;46263;44.726;10.396;2024-02-04T04:53:18;10.35;;;5.78;;
60416;SDS011;46263;44.726;10.396;2024-02-04T04:55:43;9.57;;;5.95;;
60416;SDS011;46263;44.726;10.396;2024-02-04T04:58:09;9.77;;;5.68;;
60416;SDS011;46263;44.726;10.396;2024-02-04T05:00:34;8.48;;;5.10;;
60416;SDS011;46263;44.726;10.396;2024-02-04T05:03:00;9.57;;;4.93;;
60416;SDS011;46263;44.726;10.396;2024-02-04T05:05:25;9.93;;;5.07;;
60416;SDS011;46263;44.726;10.396;2024-02-04T05:07:51;7.57;;;4.50;;
60416;SDS011;46263;44.726;10.396;2024-02-04T05:10:16;7.95;;;4.60;;
60416;SDS011;46263;44.726;10.396;2024-02-04T05:12:42;12.13;;;5.70;;
60416;SDS011;46263;44.726;10.396;2024-02-04T05:15:07;10.48;;;5.13;;
60416;SDS011;46263;44.726;10.396;2024-02-04T05:17:33;10.25;;;5.47;;
60416;SDS011;46263;44.726;10.396;2024-02-04T05:19:59;10.02;;;5.80;;
60416;SDS011;46263;44.726;10.396;2024-02-04T05:22:24;9.43;;;5.20;;
60416;SDS011;46263;44.726;10.396;2024-02-04T05:24:49;13.88;;;5.60;;
60416;SDS011;46263;44.726;10.396;2024-02-04T05:27:15;10.30;;;5.57;;
60416;SDS011;46263;44.726;10.396;2024-02-04T05:29:40;10.77;;;5.65;;
60416;SDS011;46263;44.726;10.396;2024-02-04T05:32:06;8.00;;;5.55;;
60416;SDS011;46263;44.726;10.396;2024-02-04T05:34:32;8.07;;;5.10;;
60416;SDS011;46263;44.726;10.396;2024-02-04T05:36:59;6.82;;;4.50;;
60416;SDS011;46263;44.726;10.396;2024-02-04T05:39:24;9.07;;;5.38;;
60416;SDS011;46263;44.726;10.396;2024-02-04T05:41:50;8.25;;;4.75;;
60416;SDS011;46263;44.726;10.396;2024-02-04T05:44:15;9.32;;;5.40;;
60416;SDS011;46263;44.726;10.396;2024-02-04T05:46:41;10.32;;;4.63;;
60416;SDS011;46263;44.726;10.396;2024-02-04T05:49:06;9.02;;;4.72;;
60416;SDS011;46263;44.726;10.396;2024-02-04T05:51:32;7.30;;;4.43;;
60416;SDS011;46263;44.726;10.396;2024-02-04T05:54:02;10.75;;;5.38;;
60416;SDS011;46263;44.726;10.396;2024-02-04T05:56:27;7.95;;;4.93;;
60416;SDS011;46263;44.726;10.396;2024-02-04T05:58:53;8.98;;;5.10;;
60416;SDS011;46263;44.726;10.396;2024-02-04T06:01:18;8.85;;;5.00;;
60416;SDS011;46263;44.726;10.396;2024-02-04T06:03:44;8.95;;;5.13;;
60416;SDS011;46263;44.726;10.396;2024-02-04T06:06:14;9.73;;;5.53;;
60416;SDS011;46263;44.726;10.396;2024-02-04T06:08:45;10.25;;;5.40;;
60416;SDS011;46263;44.726;10.396;2024-02-04T06:11:11;10.57;;;5.13;;
60416;SDS011;46263;44.726;10.396;2024-02-04T06:13:41;6.65;;;4.72;;
60416;SDS011;46263;44.726;10.396;2024-02-04T06:16:08;11.98;;;5.38;;
60416;SDS011;46263;44.726;10.396;2024-02-04T06:18:35;9.10;;;4.80;;
60416;SDS011;46263;44.726;10.396;2024-02-04T06:21:02;7.60;;;4.35;;
60416;SDS011;46263;44.726;10.396;2024-02-04T06:23:28;9.27;;;4.65;;
60416;SDS011;46263;44.726;10.396;2024-02-04T06:25:54;8.30;;;5.05;;
60416;SDS011;46263;44.726;10.396;2024-02-04T06:28:19;8.52;;;4.75;;
60416;SDS011;46263;44.726;10.396;2024-02-04T06:30:45;7.75;;;4.70;;
60416;SDS011;46263;44.726;10.396;2024-02-04T06:33:10;10.82;;;5.32;;
60416;SDS011;46263;44.726;10.396;2024-02-04T06:35:36;8.57;;;4.50;;
60416;SDS011;46263;44.726;10.396;2024-02-04T06:38:01;17.30;;;5.53;;
60416;SDS011;46263;44.726;10.396;2024-02-04T06:40:27;12.32;;;5.55;;
60416;SDS011;46263;44.726;10.396;2024-02-04T06:42:52;10.98;;;5.57;;
60416;SDS011;46263;44.726;10.396;2024-02-04T06:45:17;13.07;;;5.72;;
60416;SDS011;46263;44.726;10.396;2024-02-04T06:47:43;12.63;;;5.63;;
60416;SDS011;46263;44.726;10.396;2024-02-04T06:50:10;11.73;;;5.22;;
60416;SDS011;46263;44.726;10.396;2024-02-04T06:52:42;12.55;;;5.20;;
60416;SDS011;46263;44.726;10.396;2024-02-04T06:55:08;11.13;;;5.45;;
60416;SDS011;46263;44.726;10.396;2024-02-04T06:57:34;7.38;;;4.75;;
60416;SDS011;46263;44.726;10.396;2024-02-04T07:00:00;9.00;;;4.70;;
60416;SDS011;46263;44.726;10.396;2024-02-04T07:02:25;7.80;;;5.35;;
60416;SDS011;46263;44.726;10.396;2024-02-04T07:04:51;12.32;;;5.10;;
60416;SDS011;46263;44.726;10.396;2024-02-04T07:07:16;10.38;;;6.07;;
60416;SDS011;46263;44.726;10.396;2024-02-04T07:09:42;8.90;;;5.00;;
60416;SDS011;46263;44.726;10.396;2024-02-04T07:12:07;8.95;;;5.53;;
60416;SDS011;46263;44.726;10.396;2024-02-04T07:14:33;14.73;;;5.22;;
60416;SDS011;46263;44.726;10.396;2024-02-04T07:16:58;12.55;;;5.10;;
60416;SDS011;46263;44.726;10.396;2024-02-04T07:19:24;20.67;;;7.65;;
60416;SDS011;46263;44.726;10.396;2024-02-04T07:21:49;18.30;;;6.78;;
60416;SDS011;46263;44.726;10.396;2024-02-04T07:24:15;12.80;;;7.75;;
60416;SDS011;46263;44.726;10.396;2024-02-04T07:26:40;14.82;;;7.68;;
60416;SDS011;46263;44.726;10.396;2024-02-04T07:29:06;15.50;;;7.07;;
60416;SDS011;46263;44.726;10.396;2024-02-04T07:31:31;15.75;;;8.98;;
60416;SDS011;46263;44.726;10.396;2024-02-04T07:33:56;24.90;;;9.50;;
60416;SDS011;46263;44.726;10.396;2024-02-04T07:36:22;20.45;;;10.45;;
60416;SDS011;46263;44.726;10.396;2024-02-04T07:38:47;16.65;;;9.73;;
60416;SDS011;46263;44.726;10.396;2024-02-04T07:41:14;27.75;;;11.10;;
60416;SDS011;46263;44.726;10.396;2024-02-04T07:43:40;26.55;;;10.98;;
60416;SDS011;46263;44.726;10.396;2024-02-04T07:46:07;20.42;;;9.98;;
60416;SDS011;46263;44.726;10.396;2024-02-04T07:48:33;27.73;;;10.68;;
60416;SDS011;46263;44.726;10.396;2024-02-04T07:50:59;28.17;;;10.70;;
60416;SDS011;46263;44.726;10.396;2024-02-04T07:53:25;16.92;;;9.63;;
60416;SDS011;46263;44.726;10.396;2024-02-04T07:55:51;19.58;;;10.70;;
60416;SDS011;46263;44.726;10.396;2024-02-04T07:58:16;21.25;;;10.68;;
60416;SDS011;46263;44.726;10.396;2024-02-04T08:00:42;17.38;;;10.85;;
60416;SDS011;46263;44.726;10.396;2024-02-04T08:03:07;20.35;;;9.82;;
60416;SDS011;46263;44.726;10.396;2024-02-04T08:05:33;27.73;;;10.80;;
60416;SDS011;46263;44.726;10.396;2024-02-04T08:08:00;20.42;;;10.38;;
60416;SDS011;46263;44.726;10.396;2024-02-04T08:10:26;16.23;;;9.57;;
60416;SDS011;46263;44.726;10.396;2024-02-04T08:12:52;15.38;;;9.30;;
60416;SDS011;46263;44.726;10.396;2024-02-04T08:15:19;16.98;;;9.38;;
60416;SDS011;46263;44.726;10.396;2024-02-04T08:17:44;18.48;;;9.95;;
60416;SDS011;46263;44.726;10.396;2024-02-04T08:20:10;14.13;;;8.82;;
60416;SDS011;46263;44.726;10.396;2024-02-04T08:22:36;16.35;;;10.48;;
60416;SDS011;46263;44.726;10.396;2024-02-04T08:25:02;17.48;;;9.60;;
60416;SDS011;46263;44.726;10.396;2024-02-04T08:27:29;16.00;;;9.50;;
60416;SDS011;46263;44.726;10.396;2024-02-04T08:29:54;18.63;;;9.45;;
60416;SDS011;46263;44.726;10.396;2024-02-04T08:32:20;17.50;;;10.10;;
60416;SDS011;46263;44.726;10.396;2024-02-04T08:34:46;17.00;;;9.80;;
60416;SDS011;46263;44.726;10.396;2024-02-04T08:37:11;17.50;;;10.05;;
60416;SDS011;46263;44.726;10.396;2024-02-04T08:39:36;20.90;;;10.73;;
60416;SDS011;46263;44.726;10.396;2024-02-04T08:42:02;19.05;;;9.98;;
60416;SDS011;46263;44.726;10.396;2024-02-04T08:44:28;20.50;;;10.68;;
60416;SDS011;46263;44.726;10.396;2024-02-04T08:46:53;18.42;;;10.45;;
60416;SDS011;46263;44.726;10.396;2024-02-04T08:49:20;23.48;;;11.18;;
60416;SDS011;46263;44.726;10.396;2024-02-04T08:51:46;17.25;;;10.23;;
60416;SDS011;46263;44.726;10.396;2024-02-04T08:54:11;18.02;;;10.00;;
60416;SDS011;46263;44.726;10.396;2024-02-04T08:56:37;22.15;;;11.95;;
60416;SDS011;46263;44.726;10.396;2024-02-04T08:59:02;21.77;;;11.25;;
60416;SDS011;46263;44.726;10.396;2024-02-04T09:01:28;21.83;;;10.75;;
60416;SDS011;46263;44.726;10.396;2024-02-04T09:03:53;22.83;;;11.63;;
60416;SDS011;46263;44.726;10.396;2024-02-04T09:06:19;26.13;;;12.55;;
60416;SDS011;46263;44.726;10.396;2024-02-04T09:08:45;20.02;;;11.90;;
60416;SDS011;46263;44.726;10.396;2024-02-04T09:11:11;19.48;;;11.60;;
60416;SDS011;46263;44.726;10.396;2024-02-04T09:13:43;25.92;;;13.13;;
60416;SDS011;46263;44.726;10.396;2024-02-04T09:16:09;28.90;;;15.07;;
60416;SDS011;46263;44.726;10.396;2024-02-04T09:18:35;38.05;;;19.33;;
60416;SDS011;46263;44.726;10.396;2024-02-04T09:21:01;36.30;;;20.23;;
60416;SDS011;46263;44.726;10.396;2024-02-04T09:23:27;40.67;;;22.58;;
60416;SDS011;46263;44.726;10.396;2024-02-04T09:25:52;42.92;;;22.35;;
60416;SDS011;46263;44.726;10.396;2024-02-04T09:28:18;40.38;;;22.30;;
60416;SDS011;46263;44.726;10.396;2024-02-04T09:30:43;52.45;;;25.55;;
60416;SDS011;46263;44.726;10.396;2024-02-04T09:33:09;51.35;;;25.63;;
60416;SDS011;46263;44.726;10.396;2024-02-04T09:35:34;46.20;;;23.80;;
60416;SDS011;46263;44.726;10.396;2024-02-04T09:38:00;46.92;;;24.77;;
60416;SDS011;46263;44.726;10.396;2024-02-04T09:40:25;52.63;;;25.25;;
60416;SDS011;46263;44.726;10.396;2024-02-04T09:42:51;44.72;;;23.13;;
60416;SDS011;46263;44.726;10.396;2024-02-04T09:45:17;46.33;;;22.83;;
60416;SDS011;46263;44.726;10.396;2024-02-04T09:47:43;40.75;;;22.00;;
60416;SDS011;46263;44.726;10.396;2024-02-04T09:50:10;44.03;;;22.80;;
60416;SDS011;46263;44.726;10.396;2024-02-04T09:52:36;40.60;;;20.88;;
60416;SDS011;46263;44.726;10.396;2024-02-04T09:55:04;38.30;;;21.15;;
60416;SDS011;46263;44.726;10.396;2024-02-04T09:57:33;43.80;;;21.90;;
60416;SDS011;46263;44.726;10.396;2024-02-04T10:00:02;38.67;;;20.48;;
60416;SDS011;46263;44.726;10.396;2024-02-04T10:02:29;38.70;;;20.83;;
60416;SDS011;46263;44.726;10.396;2024-02-04T10:04:57;39.35;;;21.13;;
60416;SDS011;46263;44.726;10.396;2024-02-04T10:07:23;40.08;;;21.50;;
60416;SDS011;46263;44.726;10.396;2024-02-04T10:09:49;41.67;;;21.88;;
60416;SDS011;46263;44.726;10.396;2024-02-04T10:12:15;37.83;;;20.20;;
60416;SDS011;46263;44.726;10.396;2024-02-04T10:14:42;38.08;;;21.40;;
60416;SDS011;46263;44.726;10.396;2024-02-04T10:17:07;38.05;;;20.75;;
60416;SDS011;46263;44.726;10.396;2024-02-04T10:19:33;34.45;;;18.70;;
60416;SDS011;46263;44.726;10.396;2024-02-04T10:22:02;36.17;;;19.75;;
60416;SDS011;46263;44.726;10.396;2024-02-04T10:24:29;35.25;;;18.90;;
60416;SDS011;46263;44.726;10.396;2024-02-04T10:26:55;37.80;;;20.92;;
60416;SDS011;46263;44.726;10.396;2024-02-04T10:29:21;39.38;;;21.05;;
60416;SDS011;46263;44.726;10.396;2024-02-04T10:31:48;33.95;;;19.10;;
60416;SDS011;46263;44.726;10.396;2024-02-04T10:34:13;37.55;;;20.20;;
60416;SDS011;46263;44.726;10.396;2024-02-04T10:36:39;37.38;;;20.20;;
60416;SDS011;46263;44.726;10.396;2024-02-04T10:39:05;37.10;;;20.45;;
60416;SDS011;46263;44.726;10.396;2024-02-04T10:41:31;37.78;;;20.50;;
60416;SDS011;46263;44.726;10.396;2024-02-04T10:43:59;38.03;;;20.10;;
60416;SDS011;46263;44.726;10.396;2024-02-04T10:46:29;37.75;;;20.50;;
60416;SDS011;46263;44.726;10.396;2024-02-04T10:48:59;38.20;;;20.02;;
60416;SDS011;46263;44.726;10.396;2024-02-04T10:51:26;39.53;;;20.58;;
60416;SDS011;46263;44.726;10.396;2024-02-04T10:53:55;41.15;;;21.10;;
60416;SDS011;46263;44.726;10.396;2024-02-04T10:56:22;36.25;;;19.55;;
60416;SDS011;46263;44.726;10.396;2024-02-04T10:58:59;39.53;;;20.10;;
60416;SDS011;46263;44.726;10.396;2024-02-04T11:01:27;37.35;;;20.08;;
60416;SDS011;46263;44.726;10.396;2024-02-04T11:03:53;43.75;;;21.77;;
60416;SDS011;46263;44.726;10.396;2024-02-04T11:06:23;40.15;;;20.33;;
60416;SDS011;46263;44.726;10.396;2024-02-04T11:08:49;38.40;;;20.90;;
60416;SDS011;46263;44.726;10.396;2024-02-04T11:11:17;37.75;;;21.75;;
60416;SDS011;46263;44.726;10.396;2024-02-04T11:13:44;38.47;;;21.23;;
60416;SDS011;46263;44.726;10.396;2024-02-04T11:16:19;42.42;;;21.77;;
60416;SDS011;46263;44.726;10.396;2024-02-04T11:18:54;41.58;;;21.15;;
60416;SDS011;46263;44.726;10.396;2024-02-04T11:22:40;38.10;;;20.63;;
60416;SDS011;46263;44.726;10.396;2024-02-04T11:27:15;41.97;;;22.48;;
60416;SDS011;46263;44.726;10.396;2024-02-04T11:29:41;38.42;;;21.40;;
60416;SDS011;46263;44.726;10.396;2024-02-04T11:32:07;43.60;;;21.70;;
60416;SDS011;46263;44.726;10.396;2024-02-04T11:34:32;35.28;;;18.13;;
60416;SDS011;46263;44.726;10.396;2024-02-04T11:36:59;38.22;;;19.05;;
60416;SDS011;46263;44.726;10.396;2024-02-04T11:39:25;43.08;;;20.58;;
60416;SDS011;46263;44.726;10.396;2024-02-04T11:41:51;44.92;;;20.40;;
60416;SDS011;46263;44.726;10.396;2024-02-04T11:44:24;35.13;;;19.52;;
60416;SDS011;46263;44.726;10.396;2024-02-04T11:46:50;38.78;;;21.20;;
60416;SDS011;46263;44.726;10.396;2024-02-04T11:49:19;33.75;;;18.95;;
60416;SDS011;46263;44.726;10.396;2024-02-04T11:51:50;42.20;;;20.65;;
60416;SDS011;46263;44.726;10.396;2024-02-04T11:54:17;35.90;;;20.40;;
60416;SDS011;46263;44.726;10.396;2024-02-04T11:56:47;37.33;;;20.50;;
60416;SDS011;46263;44.726;10.396;2024-02-04T11:59:18;36.67;;;19.52;;
60416;SDS011;46263;44.726;10.396;2024-02-04T12:01:57;36.65;;;20.55;;
60416;SDS011;46263;44.726;10.396;2024-02-04T12:04:23;39.25;;;19.80;;
60416;SDS011;46263;44.726;10.396;2024-02-04T12:06:49;37.53;;;19.48;;
60416;SDS011;46263;44.726;10.396;2024-02-04T12:09:18;35.80;;;19.75;;
60416;SDS011;46263;44.726;10.396;2024-02-04T12:11:44;37.00;;;20.15;;
60416;SDS011;46263;44.726;10.396;2024-02-04T12:14:09;32.47;;;19.10;;
60416;SDS011;46263;44.726;10.396;2024-02-04T12:16:35;33.75;;;18.50;;
60416;SDS011;46263;44.726;10.396;2024-02-04T12:19:04;32.08;;;18.70;;
60416;SDS011;46263;44.726;10.396;2024-02-04T12:21:29;41.95;;;21.30;;
60416;SDS011;46263;44.726;10.396;2024-02-04T12:23:55;37.85;;;20.27;;
60416;SDS011;46263;44.726;10.396;2024-02-04T12:26:22;37.88;;;21.45;;
60416;SDS011;46263;44.726;10.396;2024-02-04T12:28:48;47.20;;;23.23;;
60416;SDS011;46263;44.726;10.396;2024-02-04T12:31:21;37.80;;;20.85;;
60416;SDS011;46263;44.726;10.396;2024-02-04T12:33:53;36.53;;;20.23;;
60416;SDS011;46263;44.726;10.396;2024-02-04T12:36:20;34.50;;;20.35;;
60416;SDS011;46263;44.726;10.396;2024-02-04T12:38:55;37.97;;;20.92;;
60416;SDS011;46263;44.726;10.396;2024-02-04T12:41:23;35.70;;;19.63;;
60416;SDS011;46263;44.726;10.396;2024-02-04T12:43:50;35.60;;;19.63;;
60416;SDS011;46263;44.726;10.396;2024-02-04T12:46:16;34.53;;;20.20;;
60416;SDS011;46263;44.726;10.396;2024-02-04T12:48:41;42.55;;;20.98;;
60416;SDS011;46263;44.726;10.396;2024-02-04T12:51:07;34.00;;;20.23;;
60416;SDS011;46263;44.726;10.396;2024-02-04T12:53:35;40.20;;;19.80;;
60416;SDS011;46263;44.726;10.396;2024-02-04T12:56:01;33.92;;;19.42;;
60416;SDS011;46263;44.726;10.396;2024-02-04T12:58:27;37.63;;;20.58;;
60416;SDS011;46263;44.726;10.396;2024-02-04T13:01:01;31.48;;;18.98;;
60416;SDS011;46263;44.726;10.396;2024-02-04T13:03:29;34.10;;;19.52;;
60416;SDS011;46263;44.726;10.396;2024-02-04T13:05:58;38.67;;;20.00;;
60416;SDS011;46263;44.726;10.396;2024-02-04T13:08:23;38.10;;;21.00;;
60416;SDS011;46263;44.726;10.396;2024-02-04T13:10:55;36.30;;;19.52;;
60416;SDS011;46263;44.726;10.396;2024-02-04T13:13:22;34.15;;;18.58;;
60416;SDS011;46263;44.726;10.396;2024-02-04T13:15:53;38.08;;;20.42;;
60416;SDS011;46263;44.726;10.396;2024-02-04T13:18:19;37.63;;;21.30;;
60416;SDS011;46263;44.726;10.396;2024-02-04T13:20:44;41.13;;;21.90;;
60416;SDS011;46263;44.726;10.396;2024-02-04T13:23:10;35.40;;;20.42;;
60416;SDS011;46263;44.726;10.396;2024-02-04T13:25:36;40.28;;;20.73;;
60416;SDS011;46263;44.726;10.396;2024-02-04T13:28:02;35.65;;;21.17;;
60416;SDS011;46263;44.726;10.396;2024-02-04T13:30:29;37.95;;;22.10;;
60416;SDS011;46263;44.726;10.396;2024-02-04T13:32:54;38.90;;;21.13;;
60416;SDS011;46263;44.726;10.396;2024-02-04T13:35:22;35.03;;;20.52;;
60416;SDS011;46263;44.726;10.396;2024-02-04T13:37:48;40.97;;;21.05;;
60416;SDS011;46263;44.726;10.396;2024-02-04T13:40:20;33.72;;;20.48;;
60416;SDS011;46263;44.726;10.396;2024-02-04T13:42:47;39.15;;;21.00;;
60416;SDS011;46263;44.726;10.396;2024-02-04T13:45:13;34.80;;;20.27;;
60416;SDS011;46263;44.726;10.396;2024-02-04T13:47:39;40.92;;;20.63;;
60416;SDS011;46263;44.726;10.396;2024-02-04T13:50:05;35.17;;;20.40;;
60416;SDS011;46263;44.726;10.396;2024-02-04T13:52:33;38.72;;;21.77;;
60416;SDS011;46263;44.726;10.396;2024-02-04T13:54:59;42.53;;;22.33;;
60416;SDS011;46263;44.726;10.396;2024-02-04T13:57:25;36.05;;;20.80;;
60416;SDS011;46263;44.726;10.396;2024-02-04T13:59:50;35.17;;;20.90;;
60416;SDS011;46263;44.726;10.396;2024-02-04T14:02:16;34.15;;;21.50;;
60416;SDS011;46263;44.726;10.396;2024-02-04T14:04:41;43.17;;;23.77;;
60416;SDS011;46263;44.726;10.396;2024-02-04T14:07:07;40.63;;;21.30;;
60416;SDS011;46263;44.726;10.396;2024-02-04T14:09:34;42.40;;;22.08;;
60416;SDS011;46263;44.726;10.396;2024-02-04T14:11:59;39.00;;;21.23;;
60416;SDS011;46263;44.726;10.396;2024-02-04T14:14:25;44.58;;;21.08;;
60416;SDS011;46263;44.726;10.396;2024-02-04T14:16:50;34.85;;;20.48;;
60416;SDS011;46263;44.726;10.396;2024-02-04T14:19:16;41.25;;;21.02;;
60416;SDS011;46263;44.726;10.396;2024-02-04T14:21:42;42.08;;;23.23;;